Terminal Aerodrome Forecast
Issued by NWS

Home | Current Version | Previous Version | Graphics & Text | Print | Product List | Glossary On
Versions: 1 2 3 4 5 6 7 8 9 10 11 12 13 14 15 16 17 18 19 20 21 22 23 24 25 26 27 28 29 30 31 32 33
000
FTUS43 KLOT 242300
TAFORD
TAF
KORD 242339Z 2500/2606 07007KT P6SM FEW060 FEW250
     FM250200 11004KT P6SM SCT250
     FM250500 17004KT P6SM SCT200
     FM251400 21009KT P6SM SCT120 BKN200
     FM251800 20011G16KT P6SM SCT040 BKN120 PROB30 2519/2522 -TSRA
      BKN030CB
     FM260300 19009KT P6SM VCSH BKN040=

USA.gov is the U.S. government's official web portal to all federal, state and local government web resources and services.